Time;durP1;ratioP1;P1;durP2;ratioP2;P2;SDS_P1;SDS_P2;PMS_P1;PMS_P2;Temp;Humidity;BMP_temperature;BMP_pressure;BME280_temperature;BME280_humidity;BME280_pressure;Samples;Min_cycle;Max_cycle;Signal;HPM_P1;HPM_P2
2023/02/23 00:01:15;;;;;;;7.83;5.70;;;8.60;1.00;;;;;;5073341;28;20456;-69
2023/02/23 00:03:43;;;;;;;5.67;4.40;;;8.80;1.00;;;;;;5060748;28;20916;-71
2023/02/23 00:06:10;;;;;;;6.27;4.53;;;8.80;1.00;;;;;;5073680;28;20438;-69
2023/02/23 00:08:38;;;;;;;7.23;4.80;;;8.70;1.00;;;;;;5073475;28;20449;-69
2023/02/23 00:11:06;;;;;;;7.10;3.77;;;8.70;99.90;;;;;;5073184;28;20449;-69
2023/02/23 00:13:36;;;;;;;8.93;4.70;;;8.70;1.00;;;;;;5073744;28;20441;-69
2023/02/23 00:16:06;;;;;;;10.13;4.30;;;8.70;42.90;;;;;;5072925;28;20588;-69
2023/02/23 00:18:43;;;;;;;6.97;4.47;;;8.80;1.00;;;;;;5073376;28;20476;-69
2023/02/23 00:21:13;;;;;;;10.20;6.37;;;9.00;99.90;;;;;;5073735;28;20441;-69
2023/02/23 00:23:41;;;;;;;13.80;6.20;;;9.00;1.00;;;;;;5073893;28;20817;-69
2023/02/23 00:26:07;;;;;;;11.27;5.80;;;9.00;1.00;;;;;;5073292;28;20445;-69
2023/02/23 00:28:34;;;;;;;6.07;4.53;;;9.00;1.00;;;;;;5073226;28;20452;-69
2023/02/23 00:31:02;;;;;;;6.70;4.50;;;9.10;1.00;;;;;;5072624;28;20834;-69
2023/02/23 00:33:30;;;;;;;9.40;5.40;;;9.00;99.90;;;;;;5073169;28;20506;-69
2023/02/23 00:36:03;;;;;;;13.80;5.77;;;9.00;1.00;;;;;;5059162;28;20820;-69
2023/02/23 00:38:33;;;;;;;10.23;5.37;;;8.90;1.00;;;;;;5072848;28;20513;-70
2023/02/23 00:41:00;;;;;;;10.87;4.50;;;8.80;99.90;;;;;;5072516;28;20433;-69
2023/02/23 00:43:28;;;;;;;6.33;4.67;;;8.70;1.00;;;;;;5072909;28;20445;-69
2023/02/23 00:45:55;;;;;;;9.30;5.47;;;8.70;1.00;;;;;;5072269;28;20832;-69
2023/02/23 00:48:22;;;;;;;7.13;6.00;;;8.70;1.00;;;;;;5071646;28;20433;-69
2023/02/23 00:50:59;;;;;;;8.90;6.70;;;8.60;24.30;;;;;;5072252;28;20441;-69
2023/02/23 00:53:26;;;;;;;7.10;5.47;;;8.60;99.90;;;;;;5072595;28;20433;-69
2023/02/23 00:55:53;;;;;;;11.10;5.80;;;8.90;25.60;;;;;;5071985;28;20768;-69
2023/02/23 00:58:20;;;;;;;14.87;7.00;;;8.70;1.00;;;;;;5071386;28;20449;-69
2023/02/23 01:00:47;;;;;;;6.63;4.67;;;8.70;56.10;;;;;;5071561;28;20481;-69
2023/02/23 01:03:14;;;;;;;7.63;5.47;;;8.70;99.90;;;;;;5072584;28;20741;-69
2023/02/23 01:05:42;;;;;;;8.13;6.30;;;8.70;99.90;;;;;;5072742;28;20954;-70
2023/02/23 01:08:11;;;;;;;11.40;5.80;;;8.60;99.90;;;;;;5072336;28;20445;-69
2023/02/23 01:10:41;;;;;;;9.70;5.00;;;8.60;99.90;;;;;;5072341;28;20441;-70
2023/02/23 01:13:08;;;;;;;11.30;6.97;;;8.60;99.90;;;;;;5072582;28;20440;-69
2023/02/23 01:15:40;;;;;;;6.73;5.10;;;8.50;99.90;;;;;;5072237;28;20450;-69
2023/02/23 01:18:07;;;;;;;7.97;5.90;;;8.60;99.90;;;;;;5072123;28;20456;-69
2023/02/23 01:20:36;;;;;;;9.87;6.03;;;8.60;99.90;;;;;;5072329;28;20477;-69
2023/02/23 01:23:03;;;;;;;8.70;5.40;;;8.50;99.90;;;;;;5058014;28;20495;-69
2023/02/23 01:25:33;;;;;;;9.90;5.07;;;8.40;99.90;;;;;;5079814;28;20539;-70
2023/02/23 01:28:00;;;;;;;9.87;6.33;;;8.50;99.90;;;;;;5071248;28;20867;-70
2023/02/23 01:30:27;;;;;;;9.93;5.93;;;8.50;99.90;;;;;;5072121;28;20445;-70
2023/02/23 01:32:54;;;;;;;8.90;5.97;;;8.50;99.90;;;;;;5071604;28;20450;-70
2023/02/23 01:35:21;;;;;;;11.10;7.00;;;8.50;99.90;;;;;;5072085;28;20449;-70
2023/02/23 01:37:48;;;;;;;11.30;5.57;;;8.50;99.90;;;;;;5070934;28;20440;-70
2023/02/23 01:40:27;;;;;;;13.00;6.03;;;8.40;99.90;;;;;;5071962;28;20601;-70
2023/02/23 01:42:58;;;;;;;7.37;6.20;;;8.40;99.90;;;;;;5071606;28;20543;-70
2023/02/23 01:45:29;;;;;;;10.60;6.30;;;8.40;99.90;;;;;;5071728;28;20442;-70
2023/02/23 01:48:00;;;;;;;10.80;6.03;;;8.40;99.90;;;;;;5070854;28;20437;-70
2023/02/23 01:50:33;;;;;;;11.43;7.90;;;8.50;99.90;;;;;;5071445;28;20986;-70
2023/02/23 01:52:59;;;;;;;10.33;6.17;;;8.60;99.90;;;;;;5071251;28;20431;-70
2023/02/23 01:55:28;;;;;;;16.83;7.10;;;8.80;99.90;;;;;;5071311;28;20448;-70
2023/02/23 01:58:05;;;;;;;11.83;7.63;;;8.90;99.90;;;;;;5070524;28;20495;-70
2023/02/23 02:00:35;;;;;;;12.00;6.93;;;8.90;99.90;;;;;;5070713;28;20572;-70
2023/02/23 02:03:10;;;;;;;11.17;6.97;;;8.90;99.90;;;;;;5070886;28;21275;-70
2023/02/23 02:05:38;;;;;;;10.10;6.90;;;8.90;99.90;;;;;;5071653;28;20437;-70
2023/02/23 02:08:09;;;;;;;12.57;7.47;;;8.80;99.90;;;;;;5066463;28;20446;-71
2023/02/23 02:10:45;;;;;;;10.60;7.00;;;8.70;99.90;;;;;;5069949;28;20453;-70
2023/02/23 02:13:20;;;;;;;12.17;8.30;;;8.80;99.90;;;;;;5071323;28;20437;-70
2023/02/23 02:16:17;;;;;;;9.40;5.70;;;8.70;99.90;;;;;;5070418;28;20848;-70
2023/02/23 02:19:35;;;;;;;12.13;7.80;;;8.60;99.90;;;;;;5060739;28;20905;-70
2023/02/23 02:22:40;;;;;;;16.50;7.27;;;8.70;99.90;;;;;;5008546;28;20451;-69
2023/02/23 02:25:31;;;;;;;15.20;7.13;;;8.60;99.90;;;;;;4998603;28;20439;-69
2023/02/23 02:28:30;;;;;;;15.37;7.70;;;8.80;99.90;;;;;;5069555;28;20442;-70
2023/02/23 02:31:37;;;;;;;13.30;6.90;;;8.70;99.90;;;;;;5070609;28;20442;-69
2023/02/23 02:34:42;;;;;;;11.30;7.57;;;8.70;99.90;;;;;;5013382;28;20444;-69
2023/02/23 02:37:39;;;;;;;10.90;7.23;;;8.50;99.90;;;;;;5070968;28;20866;-69
2023/02/23 02:40:15;;;;;;;11.53;7.67;;;8.60;99.90;;;;;;5045017;28;20481;-69
2023/02/23 02:43:09;;;;;;;10.27;7.00;;;8.60;99.90;;;;;;5071757;28;20437;-71
2023/02/23 02:45:42;;;;;;;11.30;7.70;;;8.60;99.90;;;;;;5071545;28;20458;-70
2023/02/23 02:48:17;;;;;;;13.90;6.80;;;8.70;99.90;;;;;;5071375;28;20433;-69
2023/02/23 02:50:49;;;;;;;9.53;6.80;;;8.80;99.90;;;;;;5071576;28;20452;-70
2023/02/23 02:53:23;;;;;;;10.40;7.90;;;9.00;99.90;;;;;;5071719;28;20469;-70
2023/02/23 02:55:55;;;;;;;11.87;7.50;;;9.00;99.90;;;;;;5071630;28;20434;-69
2023/02/23 02:58:24;;;;;;;13.97;6.90;;;9.00;99.90;;;;;;5071160;28;20442;-70
2023/02/23 04:19:27;;;;;;;9.37;6.20;;;9.30;99.90;;;;;;5069433;28;20444;-70
2023/02/23 04:21:54;;;;;;;9.97;6.83;;;9.30;99.90;;;;;;5069262;28;20445;-70
2023/02/23 04:24:21;;;;;;;11.80;6.00;;;9.30;99.90;;;;;;5071015;28;20437;-70
2023/02/23 04:26:48;;;;;;;12.03;6.63;;;9.20;99.90;;;;;;5072937;28;20437;-70
2023/02/23 04:29:15;;;;;;;9.80;6.73;;;9.20;99.90;;;;;;5072982;28;20449;-70
2023/02/23 04:31:42;;;;;;;9.50;5.07;;;9.20;99.90;;;;;;5073176;28;20446;-71
2023/02/23 04:34:10;;;;;;;8.17;4.87;;;9.20;99.90;;;;;;5073079;28;20460;-70
2023/02/23 04:36:37;;;;;;;11.63;5.70;;;9.30;99.90;;;;;;5073449;28;20457;-70
2023/02/23 04:39:04;;;;;;;9.33;5.57;;;9.30;99.90;;;;;;5071262;28;20455;-70
2023/02/23 04:41:30;;;;;;;10.00;6.07;;;9.20;99.90;;;;;;5072217;28;20469;-70
2023/02/23 04:43:57;;;;;;;14.33;6.63;;;9.20;99.90;;;;;;5072508;28;20437;-69
2023/02/23 04:46:24;;;;;;;7.73;3.90;;;9.20;99.90;;;;;;5072779;28;20450;-69
2023/02/23 04:48:51;;;;;;;7.60;5.50;;;9.20;99.90;;;;;;5072197;28;20520;-70
2023/02/23 04:51:19;;;;;;;10.30;5.63;;;9.20;99.90;;;;;;5072972;28;20450;-69
2023/02/23 04:53:46;;;;;;;12.27;6.43;;;9.20;99.90;;;;;;5072266;28;20438;-70
2023/02/23 04:56:13;;;;;;;8.33;6.00;;;9.20;99.90;;;;;;5073170;28;20444;-70
2023/02/23 04:58:40;;;;;;;12.07;6.87;;;9.30;99.90;;;;;;5072299;28;20445;-70
2023/02/23 05:01:09;;;;;;;7.40;4.50;;;9.30;99.90;;;;;;5059609;28;20470;-70
2023/02/23 05:03:36;;;;;;;8.23;5.40;;;9.20;99.90;;;;;;5072665;28;20510;-69
2023/02/23 05:06:02;;;;;;;7.40;5.80;;;9.20;99.90;;;;;;5072068;28;20442;-70
2023/02/23 05:08:31;;;;;;;6.67;4.43;;;9.20;99.90;;;;;;5058576;28;20446;-69
2023/02/23 05:10:57;;;;;;;7.13;4.80;;;9.10;99.90;;;;;;5071791;28;20449;-69
2023/02/23 05:13:24;;;;;;;7.70;5.73;;;9.20;99.90;;;;;;5072418;28;20449;-69
2023/02/23 05:15:56;;;;;;;7.60;5.30;;;9.10;99.90;;;;;;5071304;28;20473;-69
2023/02/23 05:18:24;;;;;;;9.27;5.57;;;9.10;99.90;;;;;;5072227;28;20445;-70
2023/02/23 05:20:51;;;;;;;7.30;5.03;;;9.30;99.90;;;;;;5071702;28;20479;-70
2023/02/23 05:23:18;;;;;;;10.57;5.37;;;9.20;99.90;;;;;;5072221;28;20472;-70
2023/02/23 05:25:46;;;;;;;7.57;5.40;;;9.20;99.90;;;;;;5071380;28;20947;-70
2023/02/23 05:28:13;;;;;;;11.83;5.60;;;9.10;99.90;;;;;;5071734;28;20443;-70
2023/02/23 05:30:40;;;;;;;7.40;4.67;;;9.10;99.90;;;;;;5072121;28;20441;-70
2023/02/23 05:33:07;;;;;;;7.17;5.63;;;9.20;99.90;;;;;;5071317;28;20450;-70
2023/02/23 05:35:34;;;;;;;9.53;5.17;;;9.20;99.90;;;;;;5072103;28;20461;-70
2023/02/23 05:38:01;;;;;;;11.50;6.27;;;9.20;99.90;;;;;;5070750;28;20449;-70
2023/02/23 05:40:28;;;;;;;9.17;5.93;;;9.30;99.90;;;;;;5071654;28;20801;-70
2023/02/23 05:43:00;;;;;;;10.60;5.97;;;9.30;99.90;;;;;;5071450;28;20437;-70
2023/02/23 05:45:27;;;;;;;7.03;5.53;;;9.30;99.90;;;;;;5071840;28;20438;-70
2023/02/23 05:47:53;;;;;;;4.90;3.90;;;9.30;99.90;;;;;;5070749;28;20442;-70
2023/02/23 05:50:20;;;;;;;8.30;5.30;;;9.20;99.90;;;;;;5071945;28;20442;-70
2023/02/23 05:52:47;;;;;;;8.87;5.73;;;9.30;99.90;;;;;;5070923;28;20790;-70
2023/02/23 05:55:14;;;;;;;7.27;5.03;;;9.30;99.90;;;;;;5071749;28;20452;-70
2023/02/23 05:57:41;;;;;;;6.07;4.20;;;9.20;99.90;;;;;;5071328;28;20437;-70
2023/02/23 06:00:12;;;;;;;10.33;6.67;;;9.30;99.90;;;;;;5067254;28;20519;-70
2023/02/23 06:02:40;;;;;;;8.17;5.67;;;9.30;99.90;;;;;;5071814;28;20977;-70
2023/02/23 06:05:08;;;;;;;6.23;4.00;;;9.30;99.90;;;;;;5071735;28;20993;-70
2023/02/23 06:07:35;;;;;;;5.73;4.63;;;9.20;99.90;;;;;;5071233;28;20449;-70
2023/02/23 06:10:01;;;;;;;9.37;4.27;;;9.30;99.90;;;;;;5071072;28;20818;-70
2023/02/23 06:12:28;;;;;;;6.83;4.90;;;9.30;99.90;;;;;;5071798;28;20440;-70
2023/02/23 06:14:55;;;;;;;7.80;4.67;;;9.30;99.90;;;;;;5069886;28;20442;-70
2023/02/23 06:17:24;;;;;;;6.23;3.90;;;9.20;99.90;;;;;;5069168;28;21011;-70
2023/02/23 06:19:51;;;;;;;6.93;4.50;;;9.30;99.90;;;;;;5058239;28;20900;-69
2023/02/23 06:22:18;;;;;;;9.17;5.63;;;9.20;99.90;;;;;;5071639;28;20434;-70
2023/02/23 06:24:45;;;;;;;9.93;4.90;;;9.10;99.90;;;;;;5071135;28;20449;-68
2023/02/23 06:27:12;;;;;;;18.70;5.20;;;;;;;;;;5071430;28;20786;-68
2023/02/23 06:29:40;;;;;;;8.37;5.20;;;9.10;99.90;;;;;;5072022;28;20441;-69
2023/02/23 06:32:07;;;;;;;4.47;3.67;;;9.10;99.90;;;;;;5071204;28;20429;-70
2023/02/23 06:34:36;;;;;;;8.80;5.73;;;9.20;99.90;;;;;;5071705;28;20800;-69
2023/02/23 06:37:03;;;;;;;6.77;4.87;;;9.10;99.90;;;;;;5071238;28;20791;-72
2023/02/23 06:39:29;;;;;;;4.93;4.10;;;9.20;99.90;;;;;;5068510;28;20498;-72
2023/02/23 06:41:56;;;;;;;6.70;4.00;;;9.10;99.90;;;;;;5071338;28;20849;-71
2023/02/23 06:44:23;;;;;;;7.00;4.87;;;9.30;99.90;;;;;;5071760;28;20445;-71
2023/02/23 06:46:50;;;;;;;7.00;4.80;;;9.30;99.90;;;;;;5070396;28;20452;-71
2023/02/23 06:49:17;;;;;;;8.70;5.17;;;9.40;99.90;;;;;;5070235;28;20433;-72
2023/02/23 06:51:45;;;;;;;6.10;4.43;;;9.40;99.90;;;;;;5070462;28;20453;-72
2023/02/23 06:54:12;;;;;;;6.10;4.93;;;9.30;99.90;;;;;;5070195;28;20495;-69
2023/02/23 06:56:39;;;;;;;9.90;4.13;;;9.30;99.90;;;;;;5070846;28;20458;-70
2023/02/23 06:59:06;;;;;;;8.30;5.37;;;9.30;99.90;;;;;;5070347;28;20464;-69
2023/02/23 07:01:32;;;;;;;13.10;5.03;;;9.30;99.90;;;;;;5071118;28;20830;-69
2023/02/23 07:04:00;;;;;;;8.37;5.63;;;9.30;99.90;;;;;;5070161;28;20442;-70
2023/02/23 07:06:27;;;;;;;8.50;5.97;;;9.30;99.90;;;;;;5070753;28;20525;-71
2023/02/23 07:08:57;;;;;;;7.10;5.47;;;9.30;99.90;;;;;;5069096;28;20943;-70
2023/02/23 07:11:24;;;;;;;9.10;5.23;;;9.20;99.90;;;;;;5069970;28;20445;-70
2023/02/23 07:13:51;;;;;;;5.50;4.47;;;9.30;99.90;;;;;;5069144;28;20493;-70
2023/02/23 07:16:17;;;;;;;7.03;4.53;;;9.30;99.90;;;;;;5069078;28;20822;-70
2023/02/23 07:18:44;;;;;;;7.53;4.60;;;9.40;99.90;;;;;;5069141;28;20547;-71
2023/02/23 07:21:11;;;;;;;11.30;4.37;;;9.40;99.90;;;;;;5070984;28;20499;-70
2023/02/23 07:23:38;;;;;;;5.33;4.03;;;9.30;99.90;;;;;;5070662;28;20455;-70
2023/02/23 07:26:06;;;;;;;10.70;4.80;;;9.20;99.90;;;;;;5070113;28;20446;-70
2023/02/23 07:28:33;;;;;;;8.30;4.53;;;9.30;99.90;;;;;;5069881;28;20913;-70
2023/02/23 07:30:59;;;;;;;7.17;5.00;;;9.40;99.90;;;;;;5069543;28;20815;-70
2023/02/23 07:33:26;;;;;;;12.23;5.70;;;9.40;99.90;;;;;;5070155;28;20460;-70
2023/02/23 07:35:53;;;;;;;9.67;6.27;;;9.50;99.90;;;;;;5069692;28;20445;-70
2023/02/23 07:38:20;;;;;;;9.00;4.57;;;9.40;99.90;;;;;;5069461;28;20764;-70
2023/02/23 07:40:49;;;;;;;8.10;5.17;;;9.50;99.90;;;;;;5068365;28;20480;-70
2023/02/23 07:43:17;;;;;;;8.30;5.07;;;9.50;99.90;;;;;;5070433;28;20913;-72
2023/02/23 07:45:44;;;;;;;6.10;4.87;;;9.50;99.90;;;;;;5069313;28;20457;-71
2023/02/23 07:48:10;;;;;;;7.30;5.40;;;9.50;99.90;;;;;;5070595;28;20441;-70
2023/02/23 07:50:39;;;;;;;12.13;5.60;;;9.70;99.90;;;;;;5070482;28;20445;-70
2023/02/23 07:53:06;;;;;;;8.53;5.10;;;9.80;99.90;;;;;;5069091;28;20450;-69
2023/02/23 07:55:33;;;;;;;5.53;4.40;;;9.80;99.90;;;;;;5069924;28;20452;-70
2023/02/23 07:58:00;;;;;;;6.77;4.93;;;10.00;99.90;;;;;;5069365;28;20448;-71
2023/02/23 08:00:28;;;;;;;8.80;5.30;;;9.90;99.90;;;;;;5072993;28;20445;-71
2023/02/23 08:02:55;;;;;;;5.37;4.33;;;10.00;99.90;;;;;;5072543;28;20477;-70
2023/02/23 08:05:22;;;;;;;5.60;4.37;;;10.10;99.90;;;;;;5073635;28;20433;-70
2023/02/23 08:07:49;;;;;;;6.10;4.10;;;10.20;99.90;;;;;;5072777;28;20446;-70
2023/02/23 08:10:16;;;;;;;6.20;3.93;;;10.20;99.90;;;;;;5071560;28;20452;-71
2023/02/23 08:12:43;;;;;;;7.57;5.50;;;10.30;99.90;;;;;;5072935;28;20452;-69
2023/02/23 08:15:11;;;;;;;6.83;4.57;;;10.30;99.90;;;;;;5073286;28;20495;-70
2023/02/23 08:17:40;;;;;;;7.27;5.33;;;10.40;99.90;;;;;;5073309;28;20472;-72
2023/02/23 08:20:09;;;;;;;6.47;4.00;;;10.40;99.90;;;;;;5073110;28;20769;-71
2023/02/23 08:22:36;;;;;;;6.27;4.10;;;10.40;99.90;;;;;;5072493;28;21000;-68
2023/02/23 08:25:04;;;;;;;9.23;4.93;;;10.40;99.90;;;;;;5072572;28;20448;-68
2023/02/23 08:27:34;;;;;;;11.30;5.10;;;10.40;99.90;;;;;;5074038;28;20441;-68
2023/02/23 08:30:02;;;;;;;7.80;4.00;;;10.40;99.90;;;;;;5069076;28;20488;-69
2023/02/23 08:32:29;;;;;;;7.30;4.10;;;10.30;99.90;;;;;;5073249;28;20459;-69
2023/02/23 08:34:59;;;;;;;9.77;5.23;;;10.50;99.90;;;;;;5072402;28;20974;-68
2023/02/23 08:37:26;;;;;;;9.53;5.10;;;10.60;99.90;;;;;;5073538;28;20457;-68
2023/02/23 08:39:53;;;;;;;7.20;4.53;;;10.80;99.90;;;;;;5072058;28;20429;-69
2023/02/23 08:42:20;;;;;;;4.80;3.50;;;10.80;99.90;;;;;;5073066;28;20513;-68
2023/02/23 08:44:48;;;;;;;8.97;4.03;;;11.00;99.90;;;;;;5072884;28;20447;-68
2023/02/23 08:47:16;;;;;;;8.30;4.67;;;11.10;99.90;;;;;;5072575;28;20461;-69
2023/02/23 08:49:43;;;;;;;7.87;3.67;;;11.20;99.90;;;;;;5071966;28;20529;-69
2023/02/23 08:52:11;;;;;;;7.50;4.33;;;11.20;99.90;;;;;;5073336;28;20451;-69
2023/02/23 08:54:38;;;;;;;5.90;3.40;;;11.20;99.90;;;;;;5072368;28;20438;-68
2023/02/23 08:57:05;;;;;;;4.53;3.50;;;11.20;99.90;;;;;;5072215;28;20449;-69
2023/02/23 08:59:32;;;;;;;4.43;3.23;;;11.30;99.90;;;;;;5072293;28;20438;-69
2023/02/23 09:01:58;;;;;;;5.60;3.73;;;11.30;99.70;;;;;;5071933;28;20988;-69
2023/02/23 09:04:25;;;;;;;7.40;3.47;;;11.40;97.20;;;;;;5072232;28;20446;-68
2023/02/23 09:06:53;;;;;;;5.00;3.73;;;11.40;24.20;;;;;;5072039;28;20441;-68
2023/02/23 09:09:21;;;;;;;4.20;2.93;;;11.50;3.60;;;;;;5071554;28;20441;-69
2023/02/23 09:11:48;;;;;;;4.40;2.97;;;11.50;5.10;;;;;;5072201;28;20452;-68
2023/02/23 09:14:14;;;;;;;5.90;3.50;;;11.50;1.00;;;;;;5071705;28;20453;-69
2023/02/23 09:16:43;;;;;;;4.70;3.50;;;11.50;1.00;;;;;;5071774;28;20816;-68
2023/02/23 09:19:10;;;;;;;4.90;2.97;;;11.50;1.00;;;;;;5072263;28;20498;-68
2023/02/23 09:21:37;;;;;;;3.60;2.63;;;11.70;1.00;;;;;;5072710;28;20477;-68
2023/02/23 09:24:05;;;;;;;4.93;3.20;;;11.80;1.00;;;;;;5071728;28;20438;-68
2023/02/23 09:26:38;;;;;;;3.60;2.17;;;11.90;1.00;;;;;;5072671;28;20442;-68
2023/02/23 09:29:07;;;;;;;4.60;2.90;;;11.90;1.00;;;;;;5071234;28;20448;-68
2023/02/23 09:31:34;;;;;;;5.50;3.23;;;12.00;1.00;;;;;;5072037;28;20446;-68
2023/02/23 09:34:00;;;;;;;3.40;2.90;;;12.00;1.00;;;;;;5071857;28;20453;-68
2023/02/23 09:36:31;;;;;;;8.43;3.50;;;12.10;1.00;;;;;;5072006;28;20449;-68
2023/02/23 09:38:59;;;;;;;3.93;2.57;;;12.10;99.90;;;;;;5069911;28;20433;-68
2023/02/23 09:41:55;;;;;;;8.70;3.50;;;12.20;99.90;;;;;;5071990;28;20508;-68
2023/02/23 09:44:29;;;;;;;4.77;3.00;;;12.20;99.90;;;;;;5067532;28;20446;-68
2023/02/23 09:47:07;;;;;;;5.63;2.90;;;12.30;99.90;;;;;;5071332;28;20477;-68
2023/02/23 09:49:38;;;;;;;4.60;3.00;;;12.40;99.90;;;;;;5071604;28;20811;-68
2023/02/23 09:52:10;;;;;;;4.60;3.60;;;12.40;99.90;;;;;;5071278;28;20540;-68
2023/02/23 09:54:37;;;;;;;7.47;3.57;;;12.40;99.90;;;;;;5072276;28;20524;-68
2023/02/23 09:57:14;;;;;;;3.13;2.57;;;12.60;93.10;;;;;;5070442;28;20446;-67
2023/02/23 09:59:41;;;;;;;5.97;3.20;;;12.60;1.00;;;;;;5065656;28;20437;-68
2023/02/23 10:02:21;;;;;;;2.37;2.17;;;12.70;1.00;;;;;;5071522;28;20560;-68
2023/02/23 10:04:52;;;;;;;6.20;3.20;;;12.90;90.60;;;;;;5071464;28;20445;-68
2023/02/23 10:07:26;;;;;;;5.47;2.73;;;12.90;1.00;;;;;;5072094;28;20469;-70
2023/02/23 10:10:12;;;;;;;4.93;2.53;;;12.80;1.00;;;;;;5070199;28;20437;-69
2023/02/23 10:12:47;;;;;;;5.43;3.77;;;13.10;1.00;;;;;;5065691;28;20445;-68
2023/02/23 10:15:27;;;;;;;3.83;2.43;;;13.20;99.90;;;;;;5065018;28;20807;-68
2023/02/23 10:18:03;;;;;;;4.23;2.53;;;13.40;1.00;;;;;;5067521;28;20503;-67
2023/02/23 10:20:42;;;;;;;3.83;2.07;;;13.10;1.00;;;;;;5069482;28;20448;-68
2023/02/23 10:23:15;;;;;;;3.93;1.90;;;13.20;99.90;;;;;;5061533;28;20480;-69
2023/02/23 10:25:47;;;;;;;3.40;2.10;;;13.10;99.90;;;;;;5068849;28;20437;-67
2023/02/23 10:28:16;;;;;;;5.30;2.17;;;13.40;99.90;;;;;;5064556;28;20431;-67
2023/02/23 10:30:44;;;;;;;3.40;2.00;;;13.60;99.90;;;;;;5064239;28;20457;-68
2023/02/23 10:33:16;;;;;;;2.83;1.93;;;13.50;99.90;;;;;;5066448;28;20964;-68
2023/02/23 10:35:43;;;;;;;2.30;1.80;;;13.50;1.00;;;;;;5068196;28;20446;-68
2023/02/23 10:38:14;;;;;;;3.27;2.30;;;13.50;37.20;;;;;;5068180;28;20442;-70
2023/02/23 10:40:43;;;;;;;4.50;2.10;;;13.40;9.20;;;;;;5067866;28;20449;-68
2023/02/23 10:43:11;;;;;;;7.33;2.17;;;13.40;1.00;;;;;;5068178;28;20477;-67
2023/02/23 10:45:45;;;;;;;1.97;1.43;;;13.30;1.00;;;;;;5068482;28;20445;-68
2023/02/23 10:48:17;;;;;;;3.07;1.50;;;13.40;1.00;;;;;;5068499;28;20461;-68
2023/02/23 10:50:44;;;;;;;4.30;2.60;;;13.60;1.00;;;;;;5055091;28;20465;-70
2023/02/23 10:53:15;;;;;;;2.63;1.53;;;13.70;1.00;;;;;;5068032;28;20834;-69
2023/02/23 10:55:44;;;;;;;3.97;2.00;;;13.80;1.00;;;;;;5067845;28;20438;-68
2023/02/23 10:58:15;;;;;;;6.67;1.67;;;14.00;1.00;;;;;;5068102;28;20928;-69
2023/02/23 11:00:51;;;;;;;2.57;1.50;;;14.00;1.00;;;;;;5058617;28;20450;-68
2023/02/23 11:03:23;;;;;;;3.90;1.40;;;14.10;1.00;;;;;;5065454;28;20638;-69
2023/02/23 11:05:52;;;;;;;2.13;1.20;;;14.00;99.90;;;;;;5067506;28;20873;-69
2023/02/23 11:08:29;;;;;;;4.40;1.53;;;14.00;99.90;;;;;;5068044;28;20452;-68
2023/02/23 11:11:00;;;;;;;5.53;1.80;;;14.10;99.90;;;;;;5067692;28;20494;-68
2023/02/23 11:13:29;;;;;;;2.20;1.40;;;14.20;99.90;;;;;;5059437;28;20446;-69
2023/02/23 11:16:04;;;;;;;3.30;2.23;;;14.10;99.90;;;;;;5067146;28;20475;-68
2023/02/23 11:18:31;;;;;;;3.33;1.57;;;14.10;99.90;;;;;;5067740;28;20876;-68
2023/02/23 11:20:58;;;;;;;6.13;2.97;;;14.00;99.90;;;;;;5067664;28;20445;-69
2023/02/23 11:23:28;;;;;;;7.20;3.97;;;14.10;99.90;;;;;;5067977;28;20477;-68
2023/02/23 11:25:59;;;;;;;4.63;3.07;;;14.20;1.00;;;;;;5067312;28;20446;-69
2023/02/23 11:28:30;;;;;;;8.27;3.93;;;14.30;1.00;;;;;;5064315;28;20457;-67
2023/02/23 11:31:02;;;;;;;4.10;2.90;;;14.30;1.00;;;;;;5069551;28;20437;-68
2023/02/23 11:33:34;;;;;;;5.80;2.90;;;14.30;1.00;;;;;;5072551;28;20916;-68
2023/02/23 11:36:16;;;;;;;7.10;4.53;;;14.30;1.00;;;;;;5071495;28;20452;-68
2023/02/23 11:38:45;;;;;;;8.87;5.30;;;14.20;1.00;;;;;;5071168;28;20422;-68
2023/02/23 11:41:20;;;;;;;8.60;4.47;;;14.20;1.00;;;;;;5074077;28;20947;-68
2023/02/23 11:43:49;;;;;;;9.27;4.60;;;14.30;1.00;;;;;;5074075;28;20875;-68
2023/02/23 11:46:20;;;;;;;6.87;4.40;;;14.20;1.00;;;;;;5073114;28;20479;-68
2023/02/23 11:48:51;;;;;;;9.40;4.37;;;14.40;1.00;;;;;;5073272;28;20456;-68
2023/02/23 11:51:31;;;;;;;5.70;4.07;;;14.40;1.00;;;;;;5074140;28;20448;-68
2023/02/23 11:53:58;;;;;;;5.43;3.50;;;14.60;1.00;;;;;;5066847;28;20939;-69
2023/02/23 11:56:27;;;;;;;8.50;3.97;;;14.60;1.00;;;;;;5074187;28;20793;-68
2023/02/23 11:58:57;;;;;;;8.20;4.00;;;14.50;1.00;;;;;;5073047;28;20445;-71
2023/02/23 12:01:38;;;;;;;5.63;3.60;;;14.60;1.00;;;;;;5078048;28;20491;-70
2023/02/23 12:04:06;;;;;;;7.60;4.07;;;14.60;1.00;;;;;;5063897;28;20909;-69
2023/02/23 12:06:35;;;;;;;7.20;4.40;;;14.60;1.00;;;;;;5073629;28;20449;-69
2023/02/23 12:09:12;;;;;;;5.90;3.73;;;14.20;1.00;;;;;;5072232;28;20799;-69
2023/02/23 12:11:44;;;;;;;6.23;4.00;;;14.00;1.00;;;;;;5073998;28;20502;-69
2023/02/23 12:14:20;;;;;;;7.57;4.03;;;14.00;1.00;;;;;;5073034;28;20590;-69
2023/02/23 12:16:51;;;;;;;6.27;3.77;;;14.00;1.00;;;;;;5069293;28;20483;-68
2023/02/23 12:19:25;;;;;;;4.87;3.73;;;14.00;1.00;;;;;;5073493;28;20512;-69
2023/02/23 12:22:00;;;;;;;6.43;4.07;;;14.20;1.00;;;;;;5073320;28;20437;-69
2023/02/23 12:24:37;;;;;;;6.03;3.20;;;14.20;1.00;;;;;;5073263;28;20441;-69
2023/02/23 12:27:11;;;;;;;5.67;4.40;;;14.30;1.00;;;;;;5072766;28;20441;-69
2023/02/23 12:29:49;;;;;;;5.97;3.50;;;14.30;1.00;;;;;;5073001;28;20432;-69
2023/02/23 12:32:21;;;;;;;10.90;3.70;;;14.20;1.00;;;;;;5072706;28;20476;-69
2023/02/23 12:34:54;;;;;;;3.40;2.80;;;14.20;1.00;;;;;;5072422;28;20453;-70
2023/02/23 12:37:35;;;;;;;4.17;3.60;;;14.10;1.00;;;;;;5073604;28;20790;-70
2023/02/23 12:40:12;;;;;;;3.77;2.80;;;14.00;1.00;;;;;;5069467;28;20445;-69
2023/02/23 12:42:46;;;;;;;6.67;3.73;;;13.90;1.00;;;;;;5072603;28;20467;-68
2023/02/23 12:45:20;;;;;;;5.57;3.80;;;14.00;1.00;;;;;;5069322;28;20483;-69
2023/02/23 12:47:53;;;;;;;3.83;3.40;;;14.00;1.00;;;;;;5073207;28;20445;-68
2023/02/23 12:50:27;;;;;;;7.27;3.60;;;14.00;1.00;;;;;;5073538;28;20449;-68
2023/02/23 12:52:57;;;;;;;3.83;2.87;;;14.10;1.00;;;;;;5072634;28;20437;-68
2023/02/23 12:55:31;;;;;;;8.83;2.93;;;14.10;1.00;;;;;;5073120;28;20904;-69
2023/02/23 12:58:06;;;;;;;4.87;3.10;;;14.20;1.00;;;;;;5071584;28;20430;-69
2023/02/23 13:00:44;;;;;;;4.17;2.50;;;14.30;1.00;;;;;;5073426;28;20457;-69
2023/02/23 13:03:41;;;;;;;4.33;2.83;;;14.30;1.00;;;;;;5072158;28;20472;-69
2023/02/23 13:06:11;;;;;;;6.90;3.13;;;14.30;99.90;;;;;;5073112;28;20433;-69
2023/02/23 13:08:55;;;;;;;4.87;2.50;;;14.40;99.90;;;;;;5072541;28;20792;-69
2023/02/23 13:11:37;;;;;;;4.57;2.60;;;14.50;99.90;;;;;;5072765;28;20421;-69
2023/02/23 13:14:12;;;;;;;4.63;2.77;;;14.40;99.90;;;;;;5071785;28;20437;-71
2023/02/23 13:16:44;;;;;;;4.43;2.60;;;14.30;99.90;;;;;;5062571;28;20477;-69
2023/02/23 13:19:20;;;;;;;6.40;3.00;;;14.10;1.00;;;;;;5071987;28;20765;-68
2023/02/23 13:21:54;;;;;;;5.33;3.23;;;14.00;1.00;;;;;;5071893;28;20790;-69
2023/02/23 13:24:25;;;;;;;3.40;3.00;;;13.90;1.00;;;;;;5071497;28;20465;-68
2023/02/23 13:26:58;;;;;;;4.77;2.87;;;14.00;1.00;;;;;;5071562;28;20433;-68
2023/02/23 13:29:33;;;;;;;3.67;2.60;;;13.90;1.00;;;;;;5070814;28;20482;-69
2023/02/23 13:32:02;;;;;;;4.47;2.80;;;13.90;1.00;;;;;;5070744;28;20462;-69
2023/02/23 13:34:33;;;;;;;6.50;3.37;;;13.90;1.00;;;;;;5067026;28;20801;-69
2023/02/23 13:37:03;;;;;;;6.60;3.77;;;13.80;1.00;;;;;;5069328;28;20456;-68
2023/02/23 13:39:52;;;;;;;8.83;3.00;;;13.70;1.00;;;;;;5069226;28;20434;-69
2023/02/23 13:42:32;;;;;;;5.07;3.13;;;13.70;1.00;;;;;;5067249;28;20437;-68
2023/02/23 13:45:16;;;;;;;5.47;2.70;;;13.70;1.00;;;;;;5069203;28;20441;-68
2023/02/23 13:47:49;;;;;;;4.03;2.80;;;13.60;1.00;;;;;;5069506;28;20444;-68
2023/02/23 13:50:23;;;;;;;7.07;3.27;;;13.60;1.00;;;;;;5065328;28;20767;-68
2023/02/23 13:52:54;;;;;;;4.57;3.93;;;13.60;1.00;;;;;;5057851;28;20449;-68
2023/02/23 13:55:48;;;;;;;6.30;3.13;;;13.70;1.00;;;;;;5069178;28;20448;-68
2023/02/23 13:58:17;;;;;;;11.37;3.93;;;13.50;1.00;;;;;;5061958;28;20881;-68
2023/02/23 14:00:54;;;;;;;6.97;3.90;;;13.60;1.00;;;;;;5059218;28;20446;-68
2023/02/23 14:03:24;;;;;;;3.87;2.87;;;13.60;1.00;;;;;;5067051;28;20492;-68
2023/02/23 14:05:57;;;;;;;8.87;3.97;;;13.50;1.00;;;;;;5069039;28;20515;-67
2023/02/23 14:08:31;;;;;;;4.83;3.30;;;13.50;26.90;;;;;;5069548;28;20469;-69
2023/02/23 14:10:58;;;;;;;7.23;4.03;;;13.50;7.00;;;;;;5068492;28;20445;-68
2023/02/23 14:13:30;;;;;;;4.73;3.37;;;13.50;7.20;;;;;;5069381;28;20942;-68
2023/02/23 14:16:15;;;;;;;7.53;3.77;;;13.60;48.30;;;;;;5068605;28;20851;-68
2023/02/23 14:19:05;;;;;;;5.53;3.70;;;13.50;99.90;;;;;;5068288;28;20440;-67
2023/02/23 14:21:37;;;;;;;6.40;3.90;;;13.40;99.90;;;;;;5069141;28;20789;-68
2023/02/23 14:24:13;;;;;;;5.10;3.40;;;13.40;99.90;;;;;;5068116;28;20816;-68
2023/02/23 14:27:01;;;;;;;3.40;3.10;;;13.40;99.90;;;;;;5069380;28;20520;-69
2023/02/23 14:29:30;;;;;;;6.00;2.47;;;13.40;1.00;;;;;;5066347;28;20524;-68
2023/02/23 14:32:04;;;;;;;7.33;3.00;;;13.40;1.00;;;;;;5068715;28;20493;-68